< < Back
Terminal Aerodrome Forecast


Current Version              Previous Versions:   1  2  3  4  5  6  7  8  9  

Terminal Aerodrome Forecast

274
FTUS42 KCHS 301720
TAFSAV
TAF
KSAV 301720Z 3018/0118 14011G16KT P6SM SCT040 BKN250
     FM302330 14009KT P6SM FEW040 BKN250
     FM010500 14005KT P6SM SCT009 BKN015
     FM011300 17009KT P6SM SCT015 BKN035=

Latest METAR

996
SAUS80 KWBC 302200
MTRSAV
METAR KSAV 302153Z 13014KT 10SM BKN032 BKN250 28/19 A2998 RMK AO2 SLP151
T02780194 $


USA.gov is the U.S. government's official web portal to all federal, state and local government web resources and services.